Accueil
METAR-TAF:

METAR-TAF

Aéroports :

Aéroport de Sion

Sion, Suisse

latitude: 46-13N, longitude: 007-20E, altitude: 482 m

Observation

Le bulletin a été fait il y a 18 minutes, à 18:50 UTC
Vent 6 kt de ouest
Température 28°C
Humidité 45%
Pression 1018 hPa
Visibilité 10 km ou plus

METAR: LSGS 201850Z AUTO 26006KT 9999 //////TCU 28/15 Q1018

Heure: 21:08 (19:08 UTC)

Prévision

Le bulletin a été fait il y a 4 heures et 43 minutes, à 14:25 UTC
Prévision valable du 20 à 15 UTC au 20 à 24 UTC
Vent 14 kt de ouest/sud-ouest
Visibilité 10 km ou plus
Quelques nuages à une hauteur de 8000 ft
Temporairement
du 20 à 15 UTC au 20 à 19 UTC
Vent 15 kt de ouest/sud-ouest avec des rafales jusqu'à 25 kt
Evoluant progressivement
du 20 à 19 UTC au 20 à 21 UTC
Vent 3 kt de direction variable

TAF: LSGS 201425Z 2015/2024 25014KT 9999 FEW080 TEMPO 2015/2019 25015G25KT BECMG 2019/2021 VRB03KT

Observations et prévisions météorologiques de plus de 4000 aéroports (messages METAR et TAF).

Les stations disponibles sont représentées par des disques jaunes et rouges sur la carte.

Passer la souris dessus pour voir le nom de la station.

Cliquer dessus pour voir les observations et prévisions météorologiques.

Pour changer de carte: cliquez sur les boutons verts avec une croix noire pour zoomer, sur le bouton vert avec un tiret pour effectuer un zoom arrière, ou sur les flèches vertes pour les cartes adjacentes.


METAR-TAF: